createdAt,value
2023-11-23T00:01:11.512Z,12.77
2023-11-23T00:03:39.758Z,9.77
2023-11-23T00:06:10.591Z,9.90
2023-11-23T00:08:42.480Z,10.50
2023-11-23T00:11:11.360Z,10.37
2023-11-23T00:13:39.539Z,11.07
2023-11-23T00:16:08.897Z,11.30
2023-11-23T00:18:37.166Z,11.20
2023-11-23T00:21:05.552Z,10.87
2023-11-23T00:23:35.157Z,12.13
2023-11-23T00:26:04.731Z,10.70
2023-11-23T00:28:31.890Z,11.23
2023-11-23T00:31:00.570Z,13.43
2023-11-23T00:33:28.879Z,12.90
2023-11-23T00:35:57.214Z,13.10
2023-11-23T00:38:25.361Z,13.37
2023-11-23T00:40:55.041Z,9.90
2023-11-23T00:43:23.219Z,9.53
2023-11-23T00:45:51.645Z,11.67
2023-11-23T00:48:20.092Z,10.03
2023-11-23T00:51:06.874Z,11.63
2023-11-23T00:53:35.160Z,10.67
2023-11-23T00:56:05.824Z,10.20
2023-11-23T00:58:34.108Z,9.43
2023-11-23T01:01:03.311Z,9.80
2023-11-23T01:03:33.568Z,12.57
2023-11-23T01:06:02.102Z,9.33
2023-11-23T01:08:30.254Z,9.33
2023-11-23T01:11:00.457Z,8.70
2023-11-23T01:13:30.520Z,8.30
2023-11-23T01:15:58.966Z,9.20
2023-11-23T01:18:27.250Z,9.50
2023-11-23T01:20:55.575Z,9.43
2023-11-23T01:23:23.883Z,9.63
2023-11-23T01:25:52.072Z,10.00
2023-11-23T01:28:20.278Z,9.07
2023-11-23T01:30:49.956Z,9.20
2023-11-23T01:33:18.217Z,9.50
2023-11-23T01:35:46.502Z,8.97
2023-11-23T01:38:15.049Z,12.07
2023-11-23T01:40:43.263Z,11.63
2023-11-23T01:43:11.558Z,8.90
2023-11-23T01:45:40.216Z,10.47
2023-11-23T01:48:11.052Z,13.70
2023-11-23T01:50:42.538Z,14.83
2023-11-23T01:53:11.539Z,19.00
2023-11-23T01:55:40.345Z,17.77
2023-11-23T01:58:10.651Z,16.53
2023-11-23T02:00:38.922Z,16.77
2023-11-23T02:03:07.720Z,14.53
2023-11-23T02:05:37.381Z,11.43
2023-11-23T02:08:06.686Z,11.87
2023-11-23T02:10:34.932Z,9.47
2023-11-23T02:13:04.384Z,9.20
2023-11-23T02:15:33.017Z,8.10
2023-11-23T02:18:02.767Z,8.67
2023-11-23T02:20:31.089Z,11.53
2023-11-23T02:23:02.025Z,11.33
2023-11-23T02:25:30.911Z,9.07
2023-11-23T02:27:59.091Z,11.57
2023-11-23T02:30:27.292Z,11.70
2023-11-23T02:32:57.674Z,11.47
2023-11-23T02:35:26.485Z,12.17
2023-11-23T02:37:54.908Z,11.97
2023-11-23T02:40:23.141Z,10.07
2023-11-23T02:42:52.854Z,14.30
2023-11-23T02:45:21.740Z,13.60
2023-11-23T02:47:50.835Z,15.27
2023-11-23T02:50:19.968Z,17.17
2023-11-23T02:52:48.394Z,15.97
2023-11-23T02:55:16.750Z,16.20
2023-11-23T02:57:44.976Z,17.03
2023-11-23T03:00:15.301Z,13.87
2023-11-23T03:02:43.554Z,15.83
2023-11-23T03:05:12.691Z,13.63
2023-11-23T03:07:41.409Z,15.87
2023-11-23T03:10:10.850Z,15.37
2023-11-23T03:12:39.593Z,14.20
2023-11-23T03:15:09.016Z,18.23
2023-11-23T03:17:38.808Z,16.93
2023-11-23T03:20:08.441Z,17.53
2023-11-23T03:22:36.759Z,19.80
2023-11-23T03:25:05.728Z,17.73
2023-11-23T03:27:34.393Z,19.13
2023-11-23T03:30:02.675Z,19.20
2023-11-23T03:32:31.860Z,16.20
2023-11-23T03:35:02.011Z,16.17
2023-11-23T03:37:30.388Z,17.00
2023-11-23T03:39:59.865Z,19.23
2023-11-23T03:42:28.001Z,21.77
2023-11-23T03:44:56.201Z,20.83
2023-11-23T03:47:24.753Z,17.27
2023-11-23T03:49:53.362Z,18.03
2023-11-23T03:52:23.068Z,15.70
2023-11-23T03:54:51.893Z,12.77
2023-11-23T03:57:20.234Z,11.80
2023-11-23T03:59:48.457Z,11.70
2023-11-23T04:02:16.913Z,10.20
2023-11-23T04:04:45.576Z,8.93
2023-11-23T04:07:14.195Z,8.07
2023-11-23T04:09:43.804Z,8.13
2023-11-23T04:12:12.081Z,9.13
2023-11-23T04:14:40.404Z,10.03
2023-11-23T04:17:08.648Z,12.20
2023-11-23T04:19:36.880Z,8.33
2023-11-23T04:22:08.054Z,7.90
2023-11-23T04:24:39.456Z,7.57
2023-11-23T04:27:09.851Z,6.90
2023-11-23T04:29:37.976Z,5.40
2023-11-23T04:32:07.645Z,6.53
2023-11-23T04:34:36.486Z,4.67
2023-11-23T04:37:06.146Z,4.80
2023-11-23T04:39:34.390Z,5.73
2023-11-23T04:42:03.586Z,5.87
2023-11-23T04:44:33.221Z,7.50
2023-11-23T04:47:01.550Z,6.80
2023-11-23T04:49:29.819Z,6.20
2023-11-23T04:51:59.012Z,5.57
2023-11-23T04:54:27.271Z,6.70
2023-11-23T04:56:55.508Z,6.80
2023-11-23T04:59:23.769Z,7.10
2023-11-23T05:01:53.510Z,8.63
2023-11-23T05:04:22.283Z,6.57
2023-11-23T05:06:50.943Z,6.60
2023-11-23T05:09:19.245Z,6.53
2023-11-23T05:11:47.527Z,7.13
2023-11-23T05:14:16.180Z,6.37
2023-11-23T05:16:44.545Z,6.03
2023-11-23T05:19:21.537Z,9.37
2023-11-23T05:21:55.789Z,15.47
2023-11-23T05:24:25.891Z,15.90
2023-11-23T05:26:55.689Z,14.93
2023-11-23T05:29:24.011Z,13.13
2023-11-23T05:31:52.236Z,15.10
2023-11-23T05:34:21.794Z,10.63
2023-11-23T05:36:49.939Z,10.53
2023-11-23T05:39:18.945Z,9.90
2023-11-23T05:41:47.543Z,12.07
2023-11-23T05:44:15.816Z,13.53
2023-11-23T05:46:44.779Z,25.50
2023-11-23T05:49:13.337Z,17.37
2023-11-23T05:51:43.035Z,16.97
2023-11-23T05:54:11.319Z,18.60
2023-11-23T05:56:40.958Z,23.80
2023-11-23T05:59:09.291Z,19.03
2023-11-23T06:01:37.492Z,13.53
2023-11-23T06:04:06.771Z,11.50
2023-11-23T06:06:35.580Z,12.03
2023-11-23T06:09:05.895Z,14.77
2023-11-23T06:11:34.619Z,13.23
2023-11-23T06:14:02.923Z,12.80
2023-11-23T06:16:31.212Z,10.80
2023-11-23T06:19:02.608Z,10.20
2023-11-23T06:21:32.081Z,12.77
2023-11-23T06:24:01.148Z,13.53
2023-11-23T06:26:31.045Z,11.93
2023-11-23T06:28:59.663Z,8.73
2023-11-23T06:31:29.339Z,10.13
2023-11-23T06:33:57.662Z,6.17
2023-11-23T06:36:26.105Z,4.93
2023-11-23T06:38:55.254Z,7.37
2023-11-23T06:41:24.299Z,6.83
2023-11-23T06:43:57.456Z,6.50
2023-11-23T06:46:26.222Z,6.80
2023-11-23T06:48:54.470Z,7.47
2023-11-23T06:51:22.890Z,8.80
2023-11-23T06:53:51.336Z,8.10
2023-11-23T06:56:19.515Z,15.73
2023-11-23T06:58:48.683Z,8.37
2023-11-23T07:01:18.579Z,9.40
2023-11-23T07:03:47.194Z,6.50
2023-11-23T07:06:17.695Z,14.47
2023-11-23T07:08:45.909Z,6.70
2023-11-23T07:11:19.346Z,5.83
2023-11-23T07:13:48.810Z,12.07
2023-11-23T07:16:18.667Z,7.60
2023-11-23T07:18:46.857Z,7.47
2023-11-23T07:21:17.050Z,7.70
2023-11-23T07:23:45.457Z,7.50
2023-11-23T07:26:13.931Z,7.27
2023-11-23T07:28:42.130Z,8.70
2023-11-23T07:31:11.205Z,10.30
2023-11-23T07:33:40.889Z,9.03
2023-11-23T07:36:10.187Z,11.60
2023-11-23T07:38:38.391Z,11.43
2023-11-23T07:41:07.971Z,11.43
2023-11-23T07:43:36.207Z,11.77
2023-11-23T07:46:04.758Z,8.13
2023-11-23T07:48:33.038Z,7.03
2023-11-23T07:51:03.952Z,7.30
2023-11-23T07:53:32.346Z,7.57
2023-11-23T07:56:00.603Z,7.17
2023-11-23T07:58:28.810Z,10.83
2023-11-23T08:00:58.339Z,9.87
2023-11-23T08:03:26.784Z,9.40
2023-11-23T08:05:56.320Z,8.60
2023-11-23T08:08:26.168Z,7.87
2023-11-23T08:10:54.377Z,9.80
2023-11-23T08:13:22.610Z,8.63
2023-11-23T08:15:50.917Z,8.67
2023-11-23T08:18:20.138Z,7.90
2023-11-23T08:20:48.377Z,10.03
2023-11-23T08:23:16.666Z,7.10
2023-11-23T08:25:46.288Z,8.20
2023-11-23T08:28:14.513Z,7.10
2023-11-23T08:30:42.819Z,7.73
2023-11-23T08:33:11.269Z,8.60
2023-11-23T08:35:39.446Z,6.70
2023-11-23T08:38:07.789Z,6.27
2023-11-23T08:41:05.721Z,7.07
2023-11-23T08:43:34.485Z,6.90
2023-11-23T08:46:04.082Z,6.43
2023-11-23T08:48:32.274Z,8.53
2023-11-23T08:51:03.022Z,8.80
2023-11-23T08:53:31.471Z,9.33
2023-11-23T08:55:59.710Z,10.73
2023-11-23T08:58:29.382Z,13.13
2023-11-23T09:00:57.579Z,11.97
2023-11-23T09:03:26.060Z,14.40
2023-11-23T09:05:54.440Z,14.23
2023-11-23T09:08:23.095Z,10.93
2023-11-23T09:10:53.301Z,12.40
2023-11-23T09:13:21.590Z,12.27
2023-11-23T09:15:51.313Z,11.23
2023-11-23T09:18:19.683Z,14.60
2023-11-23T09:20:49.218Z,12.27
2023-11-23T09:23:18.238Z,13.27
2023-11-23T09:25:47.888Z,13.53
2023-11-23T09:28:16.595Z,13.03
2023-11-23T09:30:45.292Z,10.57
2023-11-23T09:33:16.563Z,10.17
2023-11-23T09:35:46.393Z,10.07
2023-11-23T09:38:14.859Z,9.20
2023-11-23T09:40:43.663Z,9.40
2023-11-23T09:43:11.960Z,11.40
2023-11-23T09:45:40.662Z,10.70
2023-11-23T09:48:11.263Z,13.10
2023-11-23T09:50:42.674Z,14.80
2023-11-23T09:53:14.746Z,15.17
2023-11-23T09:55:43.483Z,17.53
2023-11-23T09:58:12.512Z,17.30
2023-11-23T10:00:41.256Z,13.13
2023-11-23T10:03:10.250Z,11.90
2023-11-23T10:05:40.106Z,13.17
2023-11-23T10:08:11.805Z,13.60
2023-11-23T10:10:40.479Z,13.93
2023-11-23T10:13:10.463Z,12.10
2023-11-23T10:15:39.115Z,11.27
2023-11-23T10:18:08.361Z,14.53
2023-11-23T10:20:39.992Z,14.07
2023-11-23T10:23:10.410Z,16.23
2023-11-23T10:25:38.730Z,15.97
2023-11-23T10:28:07.316Z,13.80
2023-11-23T10:30:39.361Z,13.63
2023-11-23T10:33:11.401Z,15.60
2023-11-23T10:35:43.388Z,17.33
2023-11-23T10:38:16.916Z,15.07
2023-11-23T10:40:46.755Z,14.17
2023-11-23T10:43:15.833Z,14.93
2023-11-23T10:45:47.193Z,22.53
2023-11-23T10:48:18.667Z,13.83
2023-11-23T10:50:47.981Z,14.73
2023-11-23T10:53:18.391Z,15.83
2023-11-23T10:55:50.795Z,17.70
2023-11-23T10:58:21.272Z,17.63
2023-11-23T11:00:50.255Z,15.03
2023-11-23T11:03:22.284Z,14.47
2023-11-23T11:05:54.583Z,15.40
2023-11-23T11:08:28.282Z,15.83
2023-11-23T11:10:56.631Z,15.97
2023-11-23T11:13:26.723Z,18.87
2023-11-23T11:15:58.307Z,19.80
2023-11-23T11:18:28.011Z,21.50
2023-11-23T11:21:11.585Z,17.27
2023-11-23T11:23:42.926Z,17.37
2023-11-23T11:26:13.016Z,15.50
2023-11-23T11:28:41.974Z,19.13
2023-11-23T11:31:16.345Z,17.07
2023-11-23T11:33:44.688Z,17.07
2023-11-23T11:36:14.557Z,17.60
2023-11-23T11:38:55.682Z,20.03
2023-11-23T11:41:27.620Z,19.10
2023-11-23T11:43:56.905Z,20.03
2023-11-23T11:46:25.157Z,17.87
2023-11-23T11:48:53.395Z,20.57
2023-11-23T11:51:21.705Z,17.83
2023-11-23T11:53:51.680Z,17.27
2023-11-23T11:56:20.573Z,19.60
2023-11-23T11:58:48.979Z,22.77
2023-11-23T12:01:17.285Z,20.70
2023-11-23T12:03:47.029Z,20.47
2023-11-23T12:06:16.361Z,22.57
2023-11-23T12:08:46.080Z,22.50
2023-11-23T12:11:28.074Z,22.37
2023-11-23T12:13:58.531Z,21.37
2023-11-23T12:16:35.267Z,22.37
2023-11-23T12:19:03.741Z,21.57
2023-11-23T12:21:32.524Z,23.73
2023-11-23T12:24:01.901Z,22.10
2023-11-23T12:26:34.867Z,21.73
2023-11-23T12:29:04.175Z,25.77
2023-11-23T12:31:33.798Z,20.20
2023-11-23T12:34:02.471Z,21.87
2023-11-23T12:36:30.641Z,24.70
2023-11-23T12:38:59.190Z,21.90
2023-11-23T12:41:27.334Z,23.97
2023-11-23T12:43:56.988Z,23.83
2023-11-23T12:46:25.342Z,28.73
2023-11-23T12:48:53.627Z,25.00
2023-11-23T12:51:21.850Z,24.63
2023-11-23T12:53:49.943Z,20.87
2023-11-23T12:56:18.248Z,20.00
2023-11-23T12:58:46.458Z,24.83
2023-11-23T13:01:16.045Z,21.67
2023-11-23T13:03:45.022Z,22.57
2023-11-23T13:06:16.694Z,24.13
2023-11-23T13:08:45.083Z,21.40
2023-11-23T13:11:14.084Z,24.30
2023-11-23T13:13:43.646Z,24.80
2023-11-23T13:16:11.879Z,20.30
2023-11-23T13:18:58.323Z,16.60
2023-11-23T13:21:30.860Z,19.27
2023-11-23T13:24:00.959Z,21.30
2023-11-23T13:26:29.815Z,20.17
2023-11-23T13:28:58.690Z,20.10
2023-11-23T13:31:28.933Z,23.17
2023-11-23T13:33:58.747Z,20.77
2023-11-23T13:36:28.544Z,21.87
2023-11-23T13:38:57.693Z,19.20
2023-11-23T13:41:26.057Z,21.40
2023-11-23T13:43:56.016Z,29.00
2023-11-23T13:46:26.098Z,26.73
2023-11-23T13:48:54.547Z,24.37
2023-11-23T13:51:24.937Z,25.53
2023-11-23T13:53:54.106Z,23.00
2023-11-23T13:56:24.033Z,27.97
2023-11-23T13:58:53.168Z,27.53
2023-11-23T14:01:21.549Z,32.03
2023-11-23T14:03:50.386Z,37.13
2023-11-23T14:06:19.160Z,33.30
2023-11-23T14:08:48.911Z,33.50
2023-11-23T14:11:19.548Z,34.30
2023-11-23T14:13:48.482Z,28.83
2023-11-23T14:16:16.722Z,37.77
2023-11-23T14:18:44.884Z,34.03
2023-11-23T14:21:13.589Z,30.03
2023-11-23T14:23:42.199Z,33.00
2023-11-23T14:26:12.537Z,34.50
2023-11-23T14:28:40.844Z,30.07
2023-11-23T14:31:12.671Z,31.10
2023-11-23T14:33:41.212Z,37.83
2023-11-23T14:36:10.407Z,42.37
2023-11-23T14:38:39.042Z,53.40
2023-11-23T14:41:09.453Z,38.97
2023-11-23T14:43:39.220Z,30.80
2023-11-23T14:46:08.877Z,35.17
2023-11-23T14:48:37.491Z,35.10
2023-11-23T14:51:06.206Z,35.77
2023-11-23T14:53:34.705Z,33.83
2023-11-23T14:56:03.900Z,34.53
2023-11-23T14:58:32.973Z,35.07
2023-11-23T15:01:02.597Z,35.73
2023-11-23T15:03:33.143Z,36.47
2023-11-23T15:06:02.054Z,35.70
2023-11-23T15:08:30.455Z,37.50
2023-11-23T15:10:58.731Z,41.33
2023-11-23T15:13:35.820Z,40.23
2023-11-23T15:16:09.402Z,39.97
2023-11-23T15:18:38.487Z,39.57
2023-11-23T15:21:07.111Z,39.17
2023-11-23T15:23:35.780Z,43.20
2023-11-23T15:26:04.910Z,46.07
2023-11-23T15:28:33.185Z,44.13
2023-11-23T15:31:01.788Z,43.63
2023-11-23T15:33:32.140Z,49.43
2023-11-23T15:36:00.380Z,49.07
2023-11-23T15:38:28.704Z,59.93
2023-11-23T15:40:57.261Z,55.53
2023-11-23T15:43:25.591Z,44.10
2023-11-23T15:45:54.820Z,44.07
2023-11-23T15:48:23.405Z,41.23
2023-11-23T15:50:52.944Z,35.27
2023-11-23T15:53:22.360Z,35.13
2023-11-23T15:55:52.210Z,38.17
2023-11-23T15:58:20.617Z,36.20
2023-11-23T16:00:48.835Z,38.00
2023-11-23T16:03:17.210Z,39.03
2023-11-23T16:05:45.762Z,37.80
2023-11-23T16:08:16.526Z,37.77
2023-11-23T16:10:44.723Z,38.43
2023-11-23T16:13:22.145Z,38.13
2023-11-23T16:15:50.999Z,44.57
2023-11-23T16:18:19.944Z,43.37
2023-11-23T16:20:48.465Z,38.77
2023-11-23T16:23:18.482Z,41.90
2023-11-23T16:25:46.827Z,40.73
2023-11-23T16:28:15.385Z,49.43
2023-11-23T16:30:44.198Z,42.77
2023-11-23T16:33:12.557Z,48.20
2023-11-23T16:35:40.833Z,56.27
2023-11-23T16:38:10.311Z,56.77
2023-11-23T16:40:39.921Z,48.40
2023-11-23T16:43:08.521Z,45.83
2023-11-23T16:45:36.939Z,40.43
2023-11-23T16:48:07.794Z,44.50
2023-11-23T16:50:36.316Z,41.73
2023-11-23T16:53:04.785Z,46.67
2023-11-23T16:55:33.525Z,47.10
2023-11-23T16:58:06.869Z,41.13
2023-11-23T17:00:35.565Z,60.47
2023-11-23T17:03:06.333Z,47.87
2023-11-23T17:05:34.932Z,41.93
2023-11-23T17:08:06.199Z,40.57
2023-11-23T17:10:34.870Z,38.13
2023-11-23T17:13:05.918Z,36.40
2023-11-23T17:15:34.183Z,39.10
2023-11-23T17:18:02.428Z,35.07
2023-11-23T17:20:30.855Z,33.50
2023-11-23T17:23:02.785Z,36.47
2023-11-23T17:25:31.891Z,35.73
2023-11-23T17:28:00.147Z,35.17
2023-11-23T17:30:30.120Z,41.93
2023-11-23T17:32:58.395Z,37.13
2023-11-23T17:35:27.269Z,42.53
2023-11-23T17:37:57.434Z,36.33
2023-11-23T17:40:26.204Z,43.03
2023-11-23T17:42:54.514Z,38.27
2023-11-23T17:45:22.971Z,40.17
2023-11-23T17:47:53.479Z,39.47
2023-11-23T17:50:21.868Z,41.57
2023-11-23T17:52:50.112Z,45.33
2023-11-23T17:55:18.673Z,47.87
2023-11-23T17:57:46.957Z,49.87
2023-11-23T18:00:16.640Z,50.00
2023-11-23T18:02:45.265Z,46.93
2023-11-23T18:05:15.672Z,51.07
2023-11-23T18:07:43.985Z,42.73
2023-11-23T18:10:16.116Z,39.50
2023-11-23T18:12:45.683Z,40.30
2023-11-23T18:15:14.342Z,40.30
2023-11-23T18:17:43.472Z,42.37
2023-11-23T18:20:14.541Z,40.30
2023-11-23T18:22:44.543Z,40.20
2023-11-23T18:25:13.990Z,42.93
2023-11-23T18:27:42.144Z,42.33
2023-11-23T18:30:13.381Z,42.93
2023-11-23T18:32:42.411Z,49.07
2023-11-23T18:35:12.201Z,38.97
2023-11-23T18:37:40.521Z,42.87
2023-11-23T18:40:14.544Z,41.63
2023-11-23T18:42:44.212Z,36.57
2023-11-23T18:45:14.232Z,39.30
2023-11-23T18:47:43.667Z,35.43
2023-11-23T18:50:12.903Z,36.40
2023-11-23T18:52:41.665Z,33.37
2023-11-23T18:55:16.110Z,33.10
2023-11-23T18:57:45.081Z,35.10
2023-11-23T19:00:14.722Z,30.40
2023-11-23T19:02:43.748Z,31.33
2023-11-23T19:05:16.565Z,31.03
2023-11-23T19:07:45.729Z,32.83
2023-11-23T19:10:17.146Z,34.33
2023-11-23T19:12:51.135Z,39.90
2023-11-23T19:15:21.657Z,36.67
2023-11-23T19:17:51.776Z,39.53
2023-11-23T19:20:23.297Z,41.60
2023-11-23T19:22:52.036Z,38.27
2023-11-23T19:25:26.052Z,40.40
2023-11-23T19:27:57.040Z,37.30
2023-11-23T19:30:27.136Z,31.33
2023-11-23T19:32:57.282Z,27.20
2023-11-23T19:35:27.055Z,31.43
2023-11-23T19:37:56.074Z,30.67
2023-11-23T19:40:27.033Z,32.00
2023-11-23T19:42:59.416Z,29.03
2023-11-23T19:45:31.586Z,29.83
2023-11-23T19:48:00.537Z,32.17
2023-11-23T19:50:30.103Z,30.23
2023-11-23T19:53:01.428Z,33.53
2023-11-23T19:55:31.006Z,35.70
2023-11-23T19:58:01.688Z,35.13
2023-11-23T20:00:31.896Z,34.83
2023-11-23T20:03:00.762Z,35.07
2023-11-23T20:05:29.211Z,35.93
2023-11-23T20:08:00.557Z,37.57
2023-11-23T20:10:30.348Z,34.97
2023-11-23T20:13:00.727Z,35.30
2023-11-23T20:15:29.661Z,37.07
2023-11-23T20:17:57.969Z,36.00
2023-11-23T20:20:26.208Z,35.90
2023-11-23T20:22:54.370Z,40.07
2023-11-23T20:25:22.928Z,37.90
2023-11-23T20:27:52.821Z,43.90
2023-11-23T20:30:21.308Z,45.60
2023-11-23T20:32:50.035Z,42.87
2023-11-23T20:35:19.401Z,40.63
2023-11-23T20:37:47.727Z,44.60
2023-11-23T20:40:15.948Z,41.37
2023-11-23T20:42:45.111Z,44.87
2023-11-23T20:45:15.096Z,43.47
2023-11-23T20:47:44.567Z,38.93
2023-11-23T20:50:13.154Z,39.83
2023-11-23T20:52:41.826Z,40.63
2023-11-23T20:55:14.006Z,42.20
2023-11-23T20:57:43.750Z,45.43
2023-11-23T21:00:17.494Z,45.13
2023-11-23T21:02:46.943Z,45.10
2023-11-23T21:05:17.494Z,42.37
2023-11-23T21:07:46.430Z,45.63
2023-11-23T21:10:17.027Z,43.77
2023-11-23T21:12:45.506Z,39.20
2023-11-23T21:15:15.230Z,40.27
2023-11-23T21:17:44.806Z,38.40
2023-11-23T21:20:14.671Z,37.53
2023-11-23T21:22:45.397Z,39.13
2023-11-23T21:25:13.721Z,39.60
2023-11-23T21:27:43.559Z,39.50
2023-11-23T21:30:12.713Z,47.00
2023-11-23T21:32:43.120Z,37.53
2023-11-23T21:35:11.716Z,42.77
2023-11-23T21:37:42.866Z,38.53
2023-11-23T21:40:13.259Z,40.40
2023-11-23T21:42:41.559Z,39.20
2023-11-23T21:45:10.574Z,44.03
2023-11-23T21:47:40.108Z,41.87
2023-11-23T21:50:12.093Z,41.70
2023-11-23T21:52:40.885Z,45.07
2023-11-23T21:55:12.475Z,42.33
2023-11-23T21:57:41.383Z,42.13
2023-11-23T22:00:10.743Z,39.50
2023-11-23T22:02:41.122Z,48.33
2023-11-23T22:05:14.817Z,44.10
2023-11-23T22:07:43.134Z,41.33
2023-11-23T22:10:11.479Z,44.97
2023-11-23T22:12:40.905Z,46.50
2023-11-23T22:15:09.859Z,39.37
2023-11-23T22:17:38.921Z,38.20
2023-11-23T22:20:09.594Z,43.40
2023-11-23T22:22:40.027Z,46.23
2023-11-23T22:25:10.380Z,41.37
2023-11-23T22:27:40.601Z,42.70
2023-11-23T22:30:11.133Z,42.47
2023-11-23T22:32:42.604Z,45.03
2023-11-23T22:35:12.340Z,50.93
2023-11-23T22:37:42.517Z,46.33
2023-11-23T22:40:12.336Z,53.73
2023-11-23T22:42:41.288Z,49.80
2023-11-23T22:45:11.234Z,51.73
2023-11-23T22:47:39.835Z,45.10
2023-11-23T22:50:10.287Z,44.03
2023-11-23T22:52:39.164Z,46.93
2023-11-23T22:55:09.955Z,46.33
2023-11-23T22:57:38.334Z,45.40
2023-11-23T23:00:25.711Z,60.73
2023-11-23T23:02:54.513Z,50.80
2023-11-23T23:05:27.748Z,49.40
2023-11-23T23:07:57.874Z,52.57
2023-11-23T23:10:31.995Z,60.87
2023-11-23T23:13:00.244Z,65.07
2023-11-23T23:15:28.536Z,48.57
2023-11-23T23:17:57.308Z,44.73
2023-11-23T23:20:25.880Z,60.27
2023-11-23T23:22:54.454Z,62.40
2023-11-23T23:25:22.884Z,54.17
2023-11-23T23:27:53.179Z,54.87
2023-11-23T23:30:21.959Z,44.37
2023-11-23T23:32:50.812Z,59.33
2023-11-23T23:35:19.584Z,61.40
2023-11-23T23:37:47.842Z,40.87
2023-11-23T23:40:16.033Z,50.93
2023-11-23T23:42:44.379Z,54.83
2023-11-23T23:45:14.135Z,67.47
2023-11-23T23:47:45.736Z,50.37
2023-11-23T23:50:14.063Z,72.87
2023-11-23T23:52:42.324Z,97.17
2023-11-23T23:55:10.873Z,40.90
2023-11-23T23:57:39.191Z,104.17
